モスクワ/シェレメーチエヴォ の空港の天気 - METARとTAF

シェレメーチエヴォ国際空港(モスクワ) ( UUEE / SVO ) - ロシア モスクワ
飛行場実況気象(Metar)
観測時間05/27 02:00 MSK (05/26 23:00 UTC)
風向・風速不定 1m/s
視程10km以上
天気現象弱い雨
なし
気温12℃
湿度77%
気圧1025hPa
METARUUEE 262300Z VRB01MPS 9999 -RA NSC 12/08 Q1025 R06R/CLRD62 NOSIG
過去の天気等 Google飛行場航空写真 Wunderground天気予報

過去48時間のMETAR

飛行場予報(TAF)
発表時間: 5/26 22:57 MSK (5/26 19:57 UTC)
予報対象時間: 27日0時 MSK ~ 28日0時 MSK
風向・風速南南東 3m/s
視程10km以上
全天の8割程度の雲 雲底高度 910m
27日0時 MSK ~ 27日11時 MSK に一時的に
天気現象弱い雨
少しの雲 雲底高度 240m
全天を覆う雲 雲底高度 490m
27日5時 MSK ~ 27日9時 MSK に徐々に
風向・風速南西 5m/s
27日11時 MSK ~ 27日18時 MSK に一時的に
天気現象弱いしゅう雨
全天の8割程度の積乱雲 雲底高度 490m
27日18時 MSK ~ 27日20時 MSK に徐々に
風向・風速南 3m/s
TAF UUEE 261957Z 2621/2721 15003MPS 9999 BKN030 TX18/2712Z TN09/2701Z
TEMPO 2621/2708 -RA FEW008 OVC016
BECMG 2702/2706 23005MPS
TEMPO 2708/2715 -SHRA BKN016CB
BECMG 2715/2717 17003MPS